createdAt,value
2022-12-09T00:00:01.310Z,5.13
2022-12-09T00:02:43.551Z,4.60
2022-12-09T00:08:32.041Z,4.97
2022-12-09T00:11:05.127Z,4.80
2022-12-09T00:14:09.325Z,6.30
2022-12-09T00:16:34.630Z,9.80
2022-12-09T00:19:12.563Z,5.40
2022-12-09T00:21:46.908Z,8.13
2022-12-09T00:24:53.192Z,5.60
2022-12-09T00:33:06.157Z,4.43
2022-12-09T00:35:45.054Z,6.20
2022-12-09T00:41:37.076Z,8.77
2022-12-09T00:53:01.562Z,5.40
2022-12-09T00:55:47.668Z,7.83
2022-12-09T00:58:41.207Z,5.97
2022-12-09T01:01:48.849Z,6.23
2022-12-09T01:10:55.554Z,4.20
2022-12-09T01:16:09.240Z,6.17
2022-12-09T01:18:37.741Z,3.80
2022-12-09T01:24:11.604Z,6.90
2022-12-09T01:29:32.411Z,5.03
2022-12-09T01:32:58.807Z,6.63
2022-12-09T01:35:56.849Z,4.90
2022-12-09T01:42:44.233Z,3.67
2022-12-09T01:45:35.845Z,4.47
2022-12-09T01:56:40.508Z,6.57
2022-12-09T01:59:16.522Z,7.10
2022-12-09T02:05:10.573Z,5.70
2022-12-09T02:10:57.850Z,4.70
2022-12-09T02:13:44.078Z,6.77
2022-12-09T02:19:36.283Z,5.67
2022-12-09T02:25:25.263Z,5.20
2022-12-09T02:28:14.400Z,5.10
2022-12-09T02:30:56.021Z,5.03
2022-12-09T02:33:39.729Z,5.27
2022-12-09T02:36:34.398Z,5.93
2022-12-09T02:39:08.017Z,3.90
2022-12-09T02:41:47.492Z,5.50
2022-12-09T02:44:19.374Z,6.80
2022-12-09T02:46:48.908Z,5.43
2022-12-09T02:49:20.126Z,4.40
2022-12-09T02:51:50.730Z,5.30
2022-12-09T02:54:20.888Z,4.60
2022-12-09T02:57:02.276Z,3.93
2022-12-09T02:59:30.041Z,4.17
2022-12-09T03:01:57.930Z,5.77
2022-12-09T03:04:28.896Z,4.93
2022-12-09T03:07:23.963Z,4.80
2022-12-09T03:09:59.184Z,5.07
2022-12-09T03:12:31.523Z,3.97
2022-12-09T03:15:03.321Z,4.43
2022-12-09T03:17:39.272Z,5.53
2022-12-09T03:20:13.140Z,5.13
2022-12-09T03:22:44.196Z,3.80
2022-12-09T03:25:24.818Z,3.43
2022-12-09T03:28:18.315Z,3.30
2022-12-09T03:31:08.082Z,4.57
2022-12-09T03:33:36.370Z,4.00
2022-12-09T03:39:23.653Z,4.40
2022-12-09T03:41:57.910Z,8.27
2022-12-09T03:44:51.212Z,3.70
2022-12-09T03:47:19.603Z,3.67
2022-12-09T03:49:50.663Z,5.17
2022-12-09T03:52:38.542Z,4.93
2022-12-09T03:55:26.537Z,3.73
2022-12-09T03:58:40.468Z,6.10
2022-12-09T04:01:21.479Z,4.17
2022-12-09T04:04:00.101Z,4.63
2022-12-09T04:06:29.880Z,4.13
2022-12-09T04:09:02.160Z,5.83
2022-12-09T04:11:34.539Z,4.17
2022-12-09T04:14:09.170Z,5.23
2022-12-09T04:16:40.260Z,5.77
2022-12-09T04:19:33.375Z,5.37
2022-12-09T04:22:01.332Z,12.27
2022-12-09T04:24:36.938Z,4.77
2022-12-09T04:27:18.339Z,6.67
2022-12-09T04:57:15.837Z,4.77
2022-12-09T04:59:46.518Z,7.53
2022-12-09T05:02:22.568Z,9.87
2022-12-09T05:04:54.930Z,8.20
2022-12-09T05:07:28.242Z,8.13
2022-12-09T05:10:00.490Z,6.53
2022-12-09T05:12:42.678Z,5.97
2022-12-09T05:15:16.873Z,7.07
2022-12-09T05:17:53.345Z,6.90
2022-12-09T05:20:38.074Z,6.33
2022-12-09T05:24:00.263Z,7.67
2022-12-09T05:26:36.212Z,6.17
2022-12-09T05:32:30.968Z,8.70
2022-12-09T05:35:04.014Z,7.60
2022-12-09T05:37:35.654Z,6.80
2022-12-09T06:09:54.078Z,14.43
2022-12-09T06:35:01.288Z,13.03
2022-12-09T06:40:08.541Z,12.50
2022-12-09T06:43:27.746Z,10.17
2022-12-09T06:50:07.466Z,13.20
2022-12-09T06:59:44.664Z,15.80
2022-12-09T07:02:16.993Z,16.80
2022-12-09T07:05:09.635Z,14.33
2022-12-09T07:42:33.655Z,16.90
2022-12-09T07:59:58.235Z,17.50
2022-12-09T08:37:08.670Z,15.67
2022-12-09T08:43:31.301Z,16.03
2022-12-09T08:46:09.727Z,16.17
2022-12-09T08:48:40.731Z,11.10
2022-12-09T08:59:15.282Z,14.33
2022-12-09T09:04:55.666Z,17.37
2022-12-09T09:07:56.793Z,10.40
2022-12-09T09:29:30.720Z,15.27
2022-12-09T12:57:48.275Z,5.77
2022-12-09T13:15:40.169Z,7.90
2022-12-09T13:18:27.093Z,6.10
2022-12-09T13:20:59.331Z,5.67
2022-12-09T13:24:03.614Z,5.73
2022-12-09T13:27:20.574Z,5.90
2022-12-09T13:30:33.371Z,6.20
2022-12-09T13:33:30.841Z,5.60
2022-12-09T13:36:08.426Z,6.57
2022-12-09T13:50:07.156Z,5.27
2022-12-09T13:59:32.896Z,7.27
2022-12-09T14:02:23.603Z,5.37
2022-12-09T14:12:24.864Z,9.40
2022-12-09T14:15:24.803Z,8.30
2022-12-09T14:21:48.884Z,9.63
2022-12-09T14:35:00.592Z,8.57
2022-12-09T14:40:39.912Z,8.30
2022-12-09T14:53:54.207Z,7.97
2022-12-09T14:56:27.033Z,8.70
2022-12-09T14:59:12.007Z,7.87
2022-12-09T15:02:02.640Z,10.07
2022-12-09T15:04:53.165Z,9.70
2022-12-09T15:07:26.373Z,10.93
2022-12-09T15:10:06.488Z,10.30
2022-12-09T15:12:46.123Z,13.07
2022-12-09T15:15:39.044Z,11.27
2022-12-09T15:18:32.779Z,14.90
2022-12-09T15:21:05.043Z,12.50
2022-12-09T15:23:41.546Z,11.10
2022-12-09T15:26:34.117Z,11.63
2022-12-09T15:29:05.343Z,10.23
2022-12-09T15:31:50.120Z,9.40
2022-12-09T15:34:32.945Z,10.20
2022-12-09T15:37:12.339Z,9.73
2022-12-09T15:39:57.670Z,8.83
2022-12-09T15:42:49.348Z,8.10
2022-12-09T15:45:24.679Z,8.37
2022-12-09T15:48:05.466Z,9.60
2022-12-09T15:50:40.679Z,9.83
2022-12-09T15:53:23.446Z,10.20
2022-12-09T15:56:09.351Z,9.40
2022-12-09T15:58:48.685Z,8.57
2022-12-09T16:01:26.377Z,9.07
2022-12-09T16:03:56.339Z,8.30
2022-12-09T16:06:31.374Z,7.70
2022-12-09T16:09:00.388Z,8.17
2022-12-09T16:11:52.857Z,10.20
2022-12-09T16:14:44.389Z,9.07
2022-12-09T16:17:29.752Z,8.43
2022-12-09T16:19:57.572Z,10.47
2022-12-09T16:22:29.433Z,11.70
2022-12-09T16:25:16.330Z,11.50
2022-12-09T16:27:49.024Z,10.27
2022-12-09T16:30:22.866Z,9.67
2022-12-09T16:33:03.243Z,9.63
2022-12-09T16:35:45.385Z,9.67
2022-12-09T16:38:21.488Z,10.50
2022-12-09T16:41:12.395Z,11.37
2022-12-09T16:43:57.675Z,12.50
2022-12-09T16:46:43.411Z,12.53
2022-12-09T16:49:12.285Z,12.70
2022-12-09T16:51:42.872Z,12.30
2022-12-09T16:54:31.468Z,13.77
2022-12-09T16:56:59.225Z,17.13
2022-12-09T16:59:33.977Z,20.00
2022-12-09T17:02:10.545Z,13.30
2022-12-09T17:04:39.853Z,16.53
2022-12-09T17:07:16.750Z,15.73
2022-12-09T17:09:44.399Z,10.93
2022-12-09T17:12:20.492Z,9.93
2022-12-09T17:14:48.330Z,12.10
2022-12-09T17:17:23.972Z,8.60
2022-12-09T17:19:53.926Z,8.73
2022-12-09T17:22:28.249Z,11.77
2022-12-09T17:25:00.577Z,10.43
2022-12-09T17:27:47.180Z,10.87
2022-12-09T17:30:17.040Z,10.53
2022-12-09T17:32:44.755Z,10.90
2022-12-09T17:35:17.239Z,13.40
2022-12-09T17:37:45.894Z,10.87
2022-12-09T17:40:14.252Z,9.83
2022-12-09T17:42:41.700Z,10.00
2022-12-09T17:45:10.301Z,9.27
2022-12-09T17:47:56.761Z,10.37
2022-12-09T17:50:24.458Z,10.93
2022-12-09T17:52:54.435Z,12.33
2022-12-09T17:55:24.631Z,11.57
2022-12-09T17:57:54.318Z,13.63
2022-12-09T18:00:21.994Z,11.73
2022-12-09T18:02:54.531Z,11.50
2022-12-09T18:05:22.033Z,13.67
2022-12-09T18:07:55.033Z,16.47
2022-12-09T18:10:22.864Z,15.23
2022-12-09T18:12:50.628Z,13.43
2022-12-09T18:15:25.672Z,12.07
2022-12-09T18:17:53.155Z,11.77
2022-12-09T18:20:23.138Z,11.67
2022-12-09T18:22:56.232Z,10.87
2022-12-09T18:25:23.819Z,11.60
2022-12-09T18:27:57.507Z,14.90
2022-12-09T18:30:24.982Z,17.53
2022-12-09T18:32:55.790Z,16.53
2022-12-09T18:35:44.093Z,21.60
2022-12-09T18:38:12.944Z,18.23
2022-12-09T18:41:01.225Z,15.23
2022-12-09T18:43:33.605Z,15.00
2022-12-09T18:46:03.369Z,12.97
2022-12-09T18:48:32.013Z,11.63
2022-12-09T18:50:59.734Z,11.03
2022-12-09T18:53:30.693Z,11.37
2022-12-09T18:55:59.761Z,12.73
2022-12-09T18:58:57.580Z,12.43
2022-12-09T19:01:29.296Z,11.37
2022-12-09T19:04:00.741Z,9.77
2022-12-09T19:06:37.713Z,9.13
2022-12-09T19:09:16.672Z,9.20
2022-12-09T19:12:37.939Z,8.70
2022-12-09T19:14:52.197Z,19.53
2022-12-09T19:17:20.218Z,11.40
2022-12-09T19:19:49.399Z,10.67
2022-12-09T19:22:20.127Z,16.23
2022-12-09T19:24:47.723Z,15.77
2022-12-09T19:27:15.175Z,12.27
2022-12-09T19:29:42.810Z,16.07
2022-12-09T19:32:36.436Z,10.70
2022-12-09T19:35:00.952Z,15.43
2022-12-09T19:37:28.457Z,14.60
2022-12-09T19:39:55.990Z,12.73
2022-12-09T19:42:23.737Z,11.20
2022-12-09T19:45:12.092Z,12.47
2022-12-09T19:47:38.721Z,12.90
2022-12-09T19:50:12.342Z,12.03
2022-12-09T19:52:39.904Z,14.73
2022-12-09T19:55:08.676Z,21.63
2022-12-09T19:57:36.336Z,16.80
2022-12-09T20:00:38.204Z,26.47
2022-12-09T20:03:10.683Z,17.77
2022-12-09T20:05:56.814Z,26.73
2022-12-09T20:08:25.619Z,18.47
2022-12-09T20:10:53.377Z,17.97
2022-12-09T20:13:28.636Z,24.07
2022-12-09T20:16:05.042Z,27.23
2022-12-09T20:18:32.719Z,17.70
2022-12-09T20:21:02.474Z,25.83
2022-12-09T20:23:32.809Z,25.27
2022-12-09T20:26:10.309Z,19.77
2022-12-09T20:28:39.845Z,17.17
2022-12-09T20:31:19.217Z,14.00
2022-12-09T20:33:52.462Z,12.30
2022-12-09T20:36:22.292Z,9.57
2022-12-09T20:56:13.992Z,12.70
2022-12-09T21:50:41.688Z,11.27
2022-12-09T22:35:23.685Z,17.33
2022-12-09T22:37:51.549Z,23.93
2022-12-09T22:40:20.193Z,25.53
2022-12-09T22:43:01.516Z,28.10
2022-12-09T22:48:43.241Z,16.20
2022-12-09T22:51:25.304Z,14.97
2022-12-09T22:53:57.642Z,13.43
2022-12-09T22:56:30.183Z,14.47
2022-12-09T22:59:11.649Z,16.50
2022-12-09T23:01:39.949Z,18.27
2022-12-09T23:04:11.733Z,21.90
2022-12-09T23:06:42.087Z,18.47
2022-12-09T23:09:17.196Z,19.07
2022-12-09T23:12:02.585Z,18.27
2022-12-09T23:14:30.218Z,18.17
2022-12-09T23:17:03.237Z,14.73
2022-12-09T23:19:49.065Z,14.93
2022-12-09T23:22:34.799Z,14.50
2022-12-09T23:25:02.389Z,15.77
2022-12-09T23:27:45.173Z,15.97
2022-12-09T23:33:06.077Z,13.83
2022-12-09T23:41:18.438Z,20.50
2022-12-09T23:43:50.729Z,25.93
2022-12-09T23:57:04.063Z,21.47
2022-12-09T23:59:36.606Z,19.63
